sensor_id;sensor_type;location;lat;lon;timestamp;temperature;humidity
30851;DHT22;17567;48.382;9.102;2022-07-10T00:01:22;16.90;99.90
30851;DHT22;17567;48.382;9.102;2022-07-10T00:06:23;17.00;99.90
30851;DHT22;17567;48.382;9.102;2022-07-10T00:11:24;16.90;99.90
30851;DHT22;17567;48.382;9.102;2022-07-10T00:16:24;16.80;99.90
30851;DHT22;17567;48.382;9.102;2022-07-10T00:21:25;16.70;99.90
30851;DHT22;17567;48.382;9.102;2022-07-10T00:26:26;16.60;99.90
30851;DHT22;17567;48.382;9.102;2022-07-10T00:31:26;16.60;99.90
30851;DHT22;17567;48.382;9.102;2022-07-10T00:36:27;16.60;99.90
30851;DHT22;17567;48.382;9.102;2022-07-10T00:41:27;16.50;99.90
30851;DHT22;17567;48.382;9.102;2022-07-10T00:46:29;16.40;99.90
30851;DHT22;17567;48.382;9.102;2022-07-10T00:51:30;16.40;99.90
30851;DHT22;17567;48.382;9.102;2022-07-10T00:56:32;16.30;99.90
30851;DHT22;17567;48.382;9.102;2022-07-10T01:01:32;16.20;99.90
30851;DHT22;17567;48.382;9.102;2022-07-10T01:06:33;16.10;99.90
30851;DHT22;17567;48.382;9.102;2022-07-10T01:11:34;16.10;99.90
30851;DHT22;17567;48.382;9.102;2022-07-10T01:16:37;15.90;99.90
30851;DHT22;17567;48.382;9.102;2022-07-10T01:36:45;15.60;99.90
30851;DHT22;17567;48.382;9.102;2022-07-10T01:41:46;15.50;99.90
30851;DHT22;17567;48.382;9.102;2022-07-10T01:46:48;15.40;99.90
30851;DHT22;17567;48.382;9.102;2022-07-10T01:51:51;15.10;99.90
30851;DHT22;17567;48.382;9.102;2022-07-10T01:56:52;15.00;99.90
30851;DHT22;17567;48.382;9.102;2022-07-10T02:21:57;14.20;99.90
30851;DHT22;17567;48.382;9.102;2022-07-10T02:26:58;14.20;99.90
30851;DHT22;17567;48.382;9.102;2022-07-10T02:31:59;14.20;99.90
30851;DHT22;17567;48.382;9.102;2022-07-10T02:36:59;14.00;99.90
30851;DHT22;17567;48.382;9.102;2022-07-10T02:42:00;13.90;99.90
30851;DHT22;17567;48.382;9.102;2022-07-10T02:47:00;13.80;99.90
30851;DHT22;17567;48.382;9.102;2022-07-10T02:52:01;13.70;99.90
30851;DHT22;17567;48.382;9.102;2022-07-10T02:57:02;13.70;99.90
30851;DHT22;17567;48.382;9.102;2022-07-10T03:02:03;13.60;99.90
30851;DHT22;17567;48.382;9.102;2022-07-10T03:07:04;13.30;99.90
30851;DHT22;17567;48.382;9.102;2022-07-10T03:12:05;13.30;99.90
30851;DHT22;17567;48.382;9.102;2022-07-10T03:17:06;13.20;99.90
30851;DHT22;17567;48.382;9.102;2022-07-10T03:22:06;13.40;99.90
30851;DHT22;17567;48.382;9.102;2022-07-10T03:27:07;13.40;99.90
30851;DHT22;17567;48.382;9.102;2022-07-10T03:32:08;13.40;99.90
30851;DHT22;17567;48.382;9.102;2022-07-10T03:37:08;13.30;99.90
30851;DHT22;17567;48.382;9.102;2022-07-10T03:42:09;13.20;99.90
30851;DHT22;17567;48.382;9.102;2022-07-10T03:47:11;13.30;99.90
30851;DHT22;17567;48.382;9.102;2022-07-10T03:52:11;13.40;99.90
30851;DHT22;17567;48.382;9.102;2022-07-10T03:57:12;13.60;99.90
30851;DHT22;17567;48.382;9.102;2022-07-10T04:02:31;13.60;99.90
30851;DHT22;17567;48.382;9.102;2022-07-10T04:07:32;13.60;99.90
30851;DHT22;17567;48.382;9.102;2022-07-10T04:12:32;13.70;99.90
30851;DHT22;17567;48.382;9.102;2022-07-10T04:17:33;13.70;99.90
30851;DHT22;17567;48.382;9.102;2022-07-10T04:22:34;13.80;99.90
30851;DHT22;17567;48.382;9.102;2022-07-10T04:27:35;13.90;99.90
30851;DHT22;17567;48.382;9.102;2022-07-10T04:32:35;14.00;99.90
30851;DHT22;17567;48.382;9.102;2022-07-10T04:37:37;14.00;99.90
30851;DHT22;17567;48.382;9.102;2022-07-10T04:42:38;14.10;99.90
30851;DHT22;17567;48.382;9.102;2022-07-10T04:47:38;14.20;99.90
30851;DHT22;17567;48.382;9.102;2022-07-10T04:52:39;14.30;99.90
30851;DHT22;17567;48.382;9.102;2022-07-10T04:57:40;14.30;99.90
30851;DHT22;17567;48.382;9.102;2022-07-10T05:02:44;14.30;99.90
30851;DHT22;17567;48.382;9.102;2022-07-10T05:07:45;14.40;99.90
30851;DHT22;17567;48.382;9.102;2022-07-10T05:12:45;14.60;99.90
30851;DHT22;17567;48.382;9.102;2022-07-10T05:17:46;14.60;99.90
30851;DHT22;17567;48.382;9.102;2022-07-10T05:22:47;14.60;99.90
30851;DHT22;17567;48.382;9.102;2022-07-10T05:27:47;14.60;99.90
30851;DHT22;17567;48.382;9.102;2022-07-10T05:32:48;14.70;99.90
30851;DHT22;17567;48.382;9.102;2022-07-10T05:37:49;14.70;99.90
30851;DHT22;17567;48.382;9.102;2022-07-10T05:42:50;14.70;99.90
30851;DHT22;17567;48.382;9.102;2022-07-10T05:47:50;14.80;99.90
30851;DHT22;17567;48.382;9.102;2022-07-10T05:52:51;14.90;99.90
30851;DHT22;17567;48.382;9.102;2022-07-10T05:57:52;14.90;99.90
30851;DHT22;17567;48.382;9.102;2022-07-10T06:02:53;14.90;99.90
30851;DHT22;17567;48.382;9.102;2022-07-10T06:07:53;15.00;99.90
30851;DHT22;17567;48.382;9.102;2022-07-10T06:12:54;15.00;99.90
30851;DHT22;17567;48.382;9.102;2022-07-10T06:17:58;14.90;99.90
30851;DHT22;17567;48.382;9.102;2022-07-10T06:22:59;14.90;99.90
30851;DHT22;17567;48.382;9.102;2022-07-10T06:27:59;14.90;99.90
30851;DHT22;17567;48.382;9.102;2022-07-10T06:33:00;14.90;99.90
30851;DHT22;17567;48.382;9.102;2022-07-10T06:38:01;14.90;99.90
30851;DHT22;17567;48.382;9.102;2022-07-10T06:43:02;15.00;99.90
30851;DHT22;17567;48.382;9.102;2022-07-10T06:48:03;15.10;99.90
30851;DHT22;17567;48.382;9.102;2022-07-10T06:53:05;15.00;99.90
30851;DHT22;17567;48.382;9.102;2022-07-10T06:58:06;15.00;99.90
30851;DHT22;17567;48.382;9.102;2022-07-10T07:03:07;15.00;99.90
30851;DHT22;17567;48.382;9.102;2022-07-10T07:08:07;15.10;99.90
30851;DHT22;17567;48.382;9.102;2022-07-10T07:13:08;15.20;99.90
30851;DHT22;17567;48.382;9.102;2022-07-10T07:18:09;15.20;99.90
30851;DHT22;17567;48.382;9.102;2022-07-10T07:23:13;15.40;99.90
30851;DHT22;17567;48.382;9.102;2022-07-10T07:28:14;15.40;99.90
30851;DHT22;17567;48.382;9.102;2022-07-10T07:33:16;15.50;99.90
30851;DHT22;17567;48.382;9.102;2022-07-10T07:38:16;15.30;99.90
30851;DHT22;17567;48.382;9.102;2022-07-10T07:43:17;15.50;99.90
30851;DHT22;17567;48.382;9.102;2022-07-10T07:48:20;15.90;99.90
30851;DHT22;17567;48.382;9.102;2022-07-10T07:53:21;15.90;99.90
30851;DHT22;17567;48.382;9.102;2022-07-10T07:58:24;15.60;99.90
30851;DHT22;17567;48.382;9.102;2022-07-10T08:03:25;15.60;99.90
30851;DHT22;17567;48.382;9.102;2022-07-10T08:08:25;15.70;99.90
30851;DHT22;17567;48.382;9.102;2022-07-10T08:13:26;15.90;99.90
30851;DHT22;17567;48.382;9.102;2022-07-10T08:18:27;16.00;99.90
30851;DHT22;17567;48.382;9.102;2022-07-10T08:23:27;16.10;99.90
30851;DHT22;17567;48.382;9.102;2022-07-10T08:28:28;16.10;99.90
30851;DHT22;17567;48.382;9.102;2022-07-10T08:33:28;16.30;99.90
30851;DHT22;17567;48.382;9.102;2022-07-10T08:38:31;17.30;99.90
30851;DHT22;17567;48.382;9.102;2022-07-10T08:48:35;17.00;99.90
30851;DHT22;17567;48.382;9.102;2022-07-10T08:53:39;17.80;99.90
30851;DHT22;17567;48.382;9.102;2022-07-10T08:58:39;17.80;99.90
30851;DHT22;17567;48.382;9.102;2022-07-10T09:03:40;18.00;99.90
30851;DHT22;17567;48.382;9.102;2022-07-10T09:09:04;18.30;99.90
30851;DHT22;17567;48.382;9.102;2022-07-10T09:14:05;18.60;99.90
30851;DHT22;17567;48.382;9.102;2022-07-10T09:19:21;19.00;99.90
30851;DHT22;17567;48.382;9.102;2022-07-10T09:24:22;18.80;99.90
30851;DHT22;17567;48.382;9.102;2022-07-10T09:29:23;19.00;99.90
30851;DHT22;17567;48.382;9.102;2022-07-10T09:40:00;19.30;99.90
30851;DHT22;17567;48.382;9.102;2022-07-10T09:45:13;19.60;99.90
30851;DHT22;17567;48.382;9.102;2022-07-10T09:50:32;19.80;99.90
30851;DHT22;17567;48.382;9.102;2022-07-10T09:55:35;19.80;99.90
30851;DHT22;17567;48.382;9.102;2022-07-10T10:00:40;19.60;99.90
30851;DHT22;17567;48.382;9.102;2022-07-10T10:05:53;19.40;99.90
30851;DHT22;17567;48.382;9.102;2022-07-10T10:10:57;20.00;99.90
30851;DHT22;17567;48.382;9.102;2022-07-10T10:15:58;20.50;99.90
30851;DHT22;17567;48.382;9.102;2022-07-10T10:20:58;20.90;99.90
30851;DHT22;17567;48.382;9.102;2022-07-10T10:25:59;20.40;99.90
30851;DHT22;17567;48.382;9.102;2022-07-10T10:31:00;21.10;99.90
30851;DHT22;17567;48.382;9.102;2022-07-10T10:36:03;21.10;99.90
30851;DHT22;17567;48.382;9.102;2022-07-10T10:41:26;21.40;99.90
30851;DHT22;17567;48.382;9.102;2022-07-10T10:46:26;21.40;99.90
30851;DHT22;17567;48.382;9.102;2022-07-10T11:02:25;21.90;99.90
30851;DHT22;17567;48.382;9.102;2022-07-10T11:07:58;22.10;99.90
30851;DHT22;17567;48.382;9.102;2022-07-10T11:13:07;21.90;99.90
30851;DHT22;17567;48.382;9.102;2022-07-10T11:18:08;22.10;99.90
30851;DHT22;17567;48.382;9.102;2022-07-10T11:28:55;22.80;99.90
30851;DHT22;17567;48.382;9.102;2022-07-10T11:33:58;22.60;99.90
30851;DHT22;17567;48.382;9.102;2022-07-10T11:39:04;22.80;99.90
30851;DHT22;17567;48.382;9.102;2022-07-10T11:44:05;22.60;99.90
30851;DHT22;17567;48.382;9.102;2022-07-10T11:49:06;22.90;99.90
30851;DHT22;17567;48.382;9.102;2022-07-10T11:54:10;23.00;99.90
30851;DHT22;17567;48.382;9.102;2022-07-10T11:59:13;22.90;99.90
30851;DHT22;17567;48.382;9.102;2022-07-10T12:04:16;23.00;99.90
30851;DHT22;17567;48.382;9.102;2022-07-10T12:09:19;23.00;99.90
30851;DHT22;17567;48.382;9.102;2022-07-10T12:14:23;23.40;99.90
30851;DHT22;17567;48.382;9.102;2022-07-10T12:19:29;22.80;99.90
30851;DHT22;17567;48.382;9.102;2022-07-10T12:24:34;23.20;99.90
30851;DHT22;17567;48.382;9.102;2022-07-10T12:29:35;23.20;99.90
30851;DHT22;17567;48.382;9.102;2022-07-10T12:34:41;23.90;99.90
30851;DHT22;17567;48.382;9.102;2022-07-10T12:39:50;23.30;99.90
30851;DHT22;17567;48.382;9.102;2022-07-10T12:44:54;23.60;99.90
30851;DHT22;17567;48.382;9.102;2022-07-10T12:55:15;23.90;99.90
30851;DHT22;17567;48.382;9.102;2022-07-10T13:10:29;24.60;99.90
30851;DHT22;17567;48.382;9.102;2022-07-10T13:15:30;24.40;99.90
30851;DHT22;17567;48.382;9.102;2022-07-10T13:20:31;24.10;99.90
30851;DHT22;17567;48.382;9.102;2022-07-10T13:25:33;24.10;99.90
30851;DHT22;17567;48.382;9.102;2022-07-10T13:30:35;24.60;99.90
30851;DHT22;17567;48.382;9.102;2022-07-10T13:35:36;24.00;99.90
30851;DHT22;17567;48.382;9.102;2022-07-10T13:40:37;24.40;99.90
30851;DHT22;17567;48.382;9.102;2022-07-10T13:45:38;24.70;99.40
30851;DHT22;17567;48.382;9.102;2022-07-10T13:50:44;24.30;99.90
30851;DHT22;17567;48.382;9.102;2022-07-10T13:55:48;25.00;99.90
30851;DHT22;17567;48.382;9.102;2022-07-10T14:05:56;24.80;96.20
30851;DHT22;17567;48.382;9.102;2022-07-10T14:10:56;25.10;96.80
30851;DHT22;17567;48.382;9.102;2022-07-10T14:15:57;25.40;98.80
30851;DHT22;17567;48.382;9.102;2022-07-10T16:16:41;25.70;81.10
30851;DHT22;17567;48.382;9.102;2022-07-10T16:26:46;24.60;86.10
30851;DHT22;17567;48.382;9.102;2022-07-10T16:31:46;25.00;82.40
30851;DHT22;17567;48.382;9.102;2022-07-10T16:41:50;25.40;99.90
30851;DHT22;17567;48.382;9.102;2022-07-10T16:46:53;25.60;83.90
30851;DHT22;17567;48.382;9.102;2022-07-10T16:51:54;25.50;84.10
30851;DHT22;17567;48.382;9.102;2022-07-10T16:56:54;25.50;83.70
30851;DHT22;17567;48.382;9.102;2022-07-10T17:01:55;24.70;82.60
30851;DHT22;17567;48.382;9.102;2022-07-10T17:06:55;24.90;84.40
30851;DHT22;17567;48.382;9.102;2022-07-10T17:11:56;24.50;82.90
30851;DHT22;17567;48.382;9.102;2022-07-10T17:16:57;24.70;84.50
30851;DHT22;17567;48.382;9.102;2022-07-10T17:21:58;24.50;84.80
30851;DHT22;17567;48.382;9.102;2022-07-10T17:26:59;24.30;86.10
30851;DHT22;17567;48.382;9.102;2022-07-10T17:31:59;24.10;83.60
30851;DHT22;17567;48.382;9.102;2022-07-10T17:37:00;23.90;84.10
30851;DHT22;17567;48.382;9.102;2022-07-10T17:42:01;23.70;87.80
30851;DHT22;17567;48.382;9.102;2022-07-10T17:47:02;23.80;85.20
30851;DHT22;17567;48.382;9.102;2022-07-10T17:52:03;23.70;86.00
30851;DHT22;17567;48.382;9.102;2022-07-10T17:57:04;23.40;87.30
30851;DHT22;17567;48.382;9.102;2022-07-10T18:02:05;23.20;86.50
30851;DHT22;17567;48.382;9.102;2022-07-10T18:07:06;22.70;88.30
30851;DHT22;17567;48.382;9.102;2022-07-10T18:12:07;21.90;89.90
30851;DHT22;17567;48.382;9.102;2022-07-10T18:17:09;21.70;90.90
30851;DHT22;17567;48.382;9.102;2022-07-10T18:22:09;21.20;91.20
30851;DHT22;17567;48.382;9.102;2022-07-10T18:27:10;20.70;91.70
30851;DHT22;17567;48.382;9.102;2022-07-10T18:32:11;20.50;92.10
30851;DHT22;17567;48.382;9.102;2022-07-10T18:37:11;19.80;93.30
30851;DHT22;17567;48.382;9.102;2022-07-10T18:42:12;19.60;93.40
30851;DHT22;17567;48.382;9.102;2022-07-10T18:47:13;19.20;94.30
30851;DHT22;17567;48.382;9.102;2022-07-10T18:52:13;19.00;94.70
30851;DHT22;17567;48.382;9.102;2022-07-10T18:57:14;18.60;95.80
30851;DHT22;17567;48.382;9.102;2022-07-10T19:02:15;18.50;96.20
30851;DHT22;17567;48.382;9.102;2022-07-10T19:07:15;18.20;96.40
30851;DHT22;17567;48.382;9.102;2022-07-10T19:12:18;18.20;96.60
30851;DHT22;17567;48.382;9.102;2022-07-10T19:17:18;18.10;97.30
30851;DHT22;17567;48.382;9.102;2022-07-10T19:22:20;18.00;97.90
30851;DHT22;17567;48.382;9.102;2022-07-10T19:27:21;17.70;99.00
30851;DHT22;17567;48.382;9.102;2022-07-10T19:32:21;17.60;99.20
30851;DHT22;17567;48.382;9.102;2022-07-10T19:37:22;17.40;99.90
30851;DHT22;17567;48.382;9.102;2022-07-10T19:42:26;16.90;99.90
30851;DHT22;17567;48.382;9.102;2022-07-10T19:47:26;16.80;99.90
30851;DHT22;17567;48.382;9.102;2022-07-10T19:52:27;16.40;99.90
30851;DHT22;17567;48.382;9.102;2022-07-10T19:57:28;16.50;99.90
30851;DHT22;17567;48.382;9.102;2022-07-10T20:02:29;16.50;99.90
30851;DHT22;17567;48.382;9.102;2022-07-10T20:07:30;16.10;99.90
30851;DHT22;17567;48.382;9.102;2022-07-10T20:12:31;15.90;99.90
30851;DHT22;17567;48.382;9.102;2022-07-10T20:17:31;15.50;99.90
30851;DHT22;17567;48.382;9.102;2022-07-10T20:22:34;15.50;99.90
30851;DHT22;17567;48.382;9.102;2022-07-10T20:27:35;15.20;99.90
30851;DHT22;17567;48.382;9.102;2022-07-10T20:32:36;15.00;99.90
30851;DHT22;17567;48.382;9.102;2022-07-10T20:47:44;14.40;99.90
30851;DHT22;17567;48.382;9.102;2022-07-10T20:52:45;14.20;99.90
30851;DHT22;17567;48.382;9.102;2022-07-10T20:57:46;14.10;99.90
30851;DHT22;17567;48.382;9.102;2022-07-10T21:02:47;13.90;99.90
30851;DHT22;17567;48.382;9.102;2022-07-10T21:07:48;13.80;99.90
30851;DHT22;17567;48.382;9.102;2022-07-10T21:12:48;13.60;99.90
30851;DHT22;17567;48.382;9.102;2022-07-10T21:17:49;13.50;99.90
30851;DHT22;17567;48.382;9.102;2022-07-10T21:22:50;13.40;99.90
30851;DHT22;17567;48.382;9.102;2022-07-10T21:27:51;13.40;99.90
30851;DHT22;17567;48.382;9.102;2022-07-10T21:32:52;13.30;99.90
30851;DHT22;17567;48.382;9.102;2022-07-10T21:42:54;13.10;99.90
30851;DHT22;17567;48.382;9.102;2022-07-10T21:47:55;13.00;99.90
30851;DHT22;17567;48.382;9.102;2022-07-10T21:52:56;12.90;99.90
30851;DHT22;17567;48.382;9.102;2022-07-10T21:57:59;12.90;99.90
30851;DHT22;17567;48.382;9.102;2022-07-10T22:03:00;12.80;99.90
30851;DHT22;17567;48.382;9.102;2022-07-10T22:08:01;12.70;99.90
30851;DHT22;17567;48.382;9.102;2022-07-10T22:13:02;12.70;99.90
30851;DHT22;17567;48.382;9.102;2022-07-10T22:18:02;12.60;99.90
30851;DHT22;17567;48.382;9.102;2022-07-10T22:23:03;12.50;99.90
30851;DHT22;17567;48.382;9.102;2022-07-10T22:28:04;12.30;99.90
30851;DHT22;17567;48.382;9.102;2022-07-10T22:33:05;12.10;99.90
30851;DHT22;17567;48.382;9.102;2022-07-10T22:38:06;12.30;99.90
30851;DHT22;17567;48.382;9.102;2022-07-10T22:43:06;12.20;99.90
30851;DHT22;17567;48.382;9.102;2022-07-10T22:48:08;12.00;99.90
30851;DHT22;17567;48.382;9.102;2022-07-10T22:53:08;11.80;99.90
30851;DHT22;17567;48.382;9.102;2022-07-10T22:58:09;11.70;99.90
30851;DHT22;17567;48.382;9.102;2022-07-10T23:03:11;11.70;99.90
30851;DHT22;17567;48.382;9.102;2022-07-10T23:08:11;11.60;99.90
30851;DHT22;17567;48.382;9.102;2022-07-10T23:13:12;11.50;99.90
30851;DHT22;17567;48.382;9.102;2022-07-10T23:18:13;11.50;99.90
30851;DHT22;17567;48.382;9.102;2022-07-10T23:23:14;11.20;99.90
30851;DHT22;17567;48.382;9.102;2022-07-10T23:28:15;11.00;99.90
30851;DHT22;17567;48.382;9.102;2022-07-10T23:33:16;11.20;99.90
30851;DHT22;17567;48.382;9.102;2022-07-10T23:38:17;11.30;99.90
30851;DHT22;17567;48.382;9.102;2022-07-10T23:43:17;11.10;99.90
30851;DHT22;17567;48.382;9.102;2022-07-10T23:48:18;11.00;99.90
30851;DHT22;17567;48.382;9.102;2022-07-10T23:53:39;11.10;99.90
30851;DHT22;17567;48.382;9.102;2022-07-10T23:58:39;10.80;99.90
